Thursday, April 28, 2016
19:50 UTC
  |  Log In   |  Register Free
Airport Search:

Gainesville Municipal Airport
(KGLE)

FAA data valid effective Mar 31 2016 - May 26 2016 (unless otherwise noted).

 
 
 
 
 
 
 
 
 
 
 
 
 
 
Current Aviation Weather for KGLE

Weather Summary


The most recent METAR observation for GLE was updated at: 12:55 UTC
METAR for KGLE is not available. Closest METAR is for KGYI
KGLE  (most recent observation was updatred at 28:19 UTC)
281935Z AUTO 14013G17KT 10SM CLR 25/14 A2990 RMK AO2 T02530136

KGYI  (26.4 nm SW)   (most recent observation was updated at 28:19 UTC)
281935Z AUTO 15009G15KT 10SM CLR 24/10 A2990 RMK AO2 T02430104

KDTO  (27.0 nm NE)   (most recent observation was updated at 28:18 UTC)
281853Z 11009KT 10SM CLR 27/13 A2987 RMK AO2 SLP107 T02720133

TAF for KGLE is not available.
GlobalAir.com is loading additional information.
 Current Weather at GLE
75.0 F° (23.7 C°)

Southeast winds at 10.4 mph
Pressure:
29.93 in
Humidity:
53%
Wind:
Southeast at 10.4 mph
Dew Point:
56.1 F° (13.4 C°)
Visibility:
10.00 mi
GLE NOAA Radar




Find All Airport Services Find A Hotel Find A Rental Car Find A Golf Course Find A Restaurant $100 Hamburger



Airport Weather Forecast for KGLE

Translated METAR for KGLE (1935 UTC)
METAR:
KGLE 281935Z AUTO 14013G17KT 10SM CLR 25/14 A2990 RMK AO2 T02530136
Conditions at:
KGLE (Gainesville Muni, TX) observed 1935 UTC 28 April 2016
Temperature:
25°C (77°F)
Dewpoint:
14°C (57.2°F) [RH = 50.5]
Pressure:
29.9 inches Hg (1012.5 mb)
Winds:
from the SE (140 degrees) at 15 mph (13 knots: 6.7 m/s)
gusting to 19.6 mph (17 knots: 8.7 m/s)
Visibility:
10 mile(s)
Ceiling:
at least 12,000 feet AGL
Clouds:
Clear below 12,000 feet AGL
Remarks:
site is un-manned
site is automated and HAS a precipitation sensor

Translated TAF for TAF for GLE is not available. Refer to local area forecast.
FBO's on the Field
FBO Company Facility Photos Services Transportation Aviation Fuel Prices: Prices include tax
Catering Weather Repair Courtesy Rental Type 100LL JetA JetA+ MOGAS 8087
 
City of Gainesville Municipal Airport

This FBO has not yet been rated
FS:Phillips 66
Last Updated: Apr-05
Login to update fuel prices
SS:
Contact City of Gainesville Municipal AirportMore FBO Information
 
Add another FBO Facility Photos Catering Weather Repair Courtesy Rental Type 100LL JetA JetA+ MOGAS 8087
Services Transportation Aviation Fuel Prices: Prices include tax


model-print
model-print
model-print
model-print